sensor_id;sensor_type;location;lat;lon;timestamp;pressure;altitude;pressure_sealevel;temperature;humidity
17855;BME280;9053;53.358;6.382;2023-05-14T00:00:02;102105.59;;;12.56;100.00
17855;BME280;9053;53.358;6.382;2023-05-14T00:02:33;102107.56;;;12.61;100.00
17855;BME280;9053;53.358;6.382;2023-05-14T00:05:04;102097.06;;;12.62;100.00
17855;BME280;9053;53.358;6.382;2023-05-14T00:07:41;102092.63;;;12.61;100.00
17855;BME280;9053;53.358;6.382;2023-05-14T00:10:11;102096.91;;;12.59;100.00
17855;BME280;9053;53.358;6.382;2023-05-14T00:12:40;102090.81;;;12.60;100.00
17855;BME280;9053;53.358;6.382;2023-05-14T00:15:10;102094.38;;;12.61;100.00
17855;BME280;9053;53.358;6.382;2023-05-14T00:17:40;102093.66;;;12.65;100.00
17855;BME280;9053;53.358;6.382;2023-05-14T00:20:11;102084.72;;;12.61;100.00
17855;BME280;9053;53.358;6.382;2023-05-14T00:22:43;102083.38;;;12.51;100.00
17855;BME280;9053;53.358;6.382;2023-05-14T00:25:13;102075.53;;;12.53;100.00
17855;BME280;9053;53.358;6.382;2023-05-14T00:27:45;102073.72;;;12.52;100.00
17855;BME280;9053;53.358;6.382;2023-05-14T00:30:15;102071.09;;;12.52;100.00
17855;BME280;9053;53.358;6.382;2023-05-14T00:32:45;102068.75;;;12.58;100.00
17855;BME280;9053;53.358;6.382;2023-05-14T00:35:15;102065.38;;;12.62;100.00
17855;BME280;9053;53.358;6.382;2023-05-14T00:37:48;102055.31;;;12.53;100.00
17855;BME280;9053;53.358;6.382;2023-05-14T00:40:18;102049.16;;;12.53;100.00
17855;BME280;9053;53.358;6.382;2023-05-14T00:42:49;102052.78;;;12.55;100.00
17855;BME280;9053;53.358;6.382;2023-05-14T00:45:19;102054.44;;;12.53;100.00
17855;BME280;9053;53.358;6.382;2023-05-14T00:47:49;102050.91;;;12.52;100.00
17855;BME280;9053;53.358;6.382;2023-05-14T00:50:19;102046.31;;;12.48;100.00
17855;BME280;9053;53.358;6.382;2023-05-14T00:52:52;102042.06;;;12.52;100.00
17855;BME280;9053;53.358;6.382;2023-05-14T00:55:22;102034.22;;;12.53;100.00
17855;BME280;9053;53.358;6.382;2023-05-14T00:57:53;102039.75;;;12.60;100.00
17855;BME280;9053;53.358;6.382;2023-05-14T01:00:24;102040.69;;;12.60;100.00
17855;BME280;9053;53.358;6.382;2023-05-14T01:02:54;102031.84;;;12.60;100.00
17855;BME280;9053;53.358;6.382;2023-05-14T01:05:29;102029.19;;;12.60;100.00
17855;BME280;9053;53.358;6.382;2023-05-14T01:08:10;102029.38;;;12.63;100.00
17855;BME280;9053;53.358;6.382;2023-05-14T01:10:48;102032.91;;;12.63;100.00
17855;BME280;9053;53.358;6.382;2023-05-14T01:13:24;102035.66;;;12.66;100.00
17855;BME280;9053;53.358;6.382;2023-05-14T01:15:55;102035.88;;;12.71;100.00
17855;BME280;9053;53.358;6.382;2023-05-14T01:18:27;102038.22;;;12.65;100.00
17855;BME280;9053;53.358;6.382;2023-05-14T01:20:58;102038.22;;;12.65;100.00
17855;BME280;9053;53.358;6.382;2023-05-14T01:23:33;102042.47;;;12.61;100.00
17855;BME280;9053;53.358;6.382;2023-05-14T01:26:03;102043.50;;;12.65;100.00
17855;BME280;9053;53.358;6.382;2023-05-14T01:28:36;102044.44;;;12.65;100.00
17855;BME280;9053;53.358;6.382;2023-05-14T01:31:11;102036.69;;;12.70;100.00
17855;BME280;9053;53.358;6.382;2023-05-14T01:33:46;102035.88;;;12.71;100.00
17855;BME280;9053;53.358;6.382;2023-05-14T01:36:17;102041.41;;;12.77;100.00
17855;BME280;9053;53.358;6.382;2023-05-14T01:38:50;102049.53;;;12.82;100.00
17855;BME280;9053;53.358;6.382;2023-05-14T01:41:21;102040.97;;;12.87;100.00
17855;BME280;9053;53.358;6.382;2023-05-14T01:43:51;102036.53;;;12.86;100.00
17855;BME280;9053;53.358;6.382;2023-05-14T01:46:21;102035.56;;;12.84;100.00
17855;BME280;9053;53.358;6.382;2023-05-14T01:48:51;102025.66;;;12.78;100.00
17855;BME280;9053;53.358;6.382;2023-05-14T01:51:21;102025.53;;;12.75;100.00
17855;BME280;9053;53.358;6.382;2023-05-14T01:53:54;102024.75;;;12.78;100.00
17855;BME280;9053;53.358;6.382;2023-05-14T01:56:23;102023.91;;;12.79;100.00
17855;BME280;9053;53.358;6.382;2023-05-14T01:58:53;102015.78;;;12.74;100.00
17855;BME280;9053;53.358;6.382;2023-05-14T02:01:24;102017.59;;;12.75;100.00
17855;BME280;9053;53.358;6.382;2023-05-14T02:03:57;102001.69;;;12.74;100.00
17855;BME280;9053;53.358;6.382;2023-05-14T02:06:28;101998.97;;;12.72;100.00
17855;BME280;9053;53.358;6.382;2023-05-14T02:09:04;102002.25;;;12.67;100.00
17855;BME280;9053;53.358;6.382;2023-05-14T02:11:34;101998.16;;;12.73;100.00
17855;BME280;9053;53.358;6.382;2023-05-14T02:14:04;101986.63;;;12.71;100.00
17855;BME280;9053;53.358;6.382;2023-05-14T02:16:34;101990.78;;;12.66;100.00
17855;BME280;9053;53.358;6.382;2023-05-14T02:19:03;101995.94;;;12.63;100.00
17855;BME280;9053;53.358;6.382;2023-05-14T02:21:34;101991.22;;;12.56;100.00
17855;BME280;9053;53.358;6.382;2023-05-14T02:24:06;101990.34;;;12.55;100.00
17855;BME280;9053;53.358;6.382;2023-05-14T02:26:36;101989.34;;;12.53;100.00
17855;BME280;9053;53.358;6.382;2023-05-14T02:29:06;101988.50;;;12.54;100.00
17855;BME280;9053;53.358;6.382;2023-05-14T02:31:36;101985.09;;;12.57;100.00
17855;BME280;9053;53.358;6.382;2023-05-14T02:34:06;101980.03;;;12.62;100.00
17855;BME280;9053;53.358;6.382;2023-05-14T02:36:36;101961.44;;;12.59;100.00
17855;BME280;9053;53.358;6.382;2023-05-14T02:39:08;101961.56;;;12.62;100.00
17855;BME280;9053;53.358;6.382;2023-05-14T02:41:38;101960.91;;;12.67;100.00
17855;BME280;9053;53.358;6.382;2023-05-14T02:44:08;101966.91;;;12.63;100.00
17855;BME280;9053;53.358;6.382;2023-05-14T02:46:38;101964.41;;;12.66;100.00
17855;BME280;9053;53.358;6.382;2023-05-14T02:49:08;101951.13;;;12.65;100.00
17855;BME280;9053;53.358;6.382;2023-05-14T02:51:37;101944.91;;;12.63;100.00
17855;BME280;9053;53.358;6.382;2023-05-14T02:54:10;101945.81;;;12.63;100.00
17855;BME280;9053;53.358;6.382;2023-05-14T02:56:42;101951.13;;;12.65;100.00
17855;BME280;9053;53.358;6.382;2023-05-14T02:59:13;101954.63;;;12.64;100.00
17855;BME280;9053;53.358;6.382;2023-05-14T03:01:43;101958.16;;;12.64;100.00
17855;BME280;9053;53.358;6.382;2023-05-14T03:04:14;101953.75;;;12.65;100.00
17855;BME280;9053;53.358;6.382;2023-05-14T03:06:46;101964.41;;;12.66;100.00
17855;BME280;9053;53.358;6.382;2023-05-14T03:09:19;101960.03;;;12.67;100.00
17855;BME280;9053;53.358;6.382;2023-05-14T03:11:49;101945.03;;;12.66;100.00
17855;BME280;9053;53.358;6.382;2023-05-14T03:14:19;101953.75;;;12.65;100.00
17855;BME280;9053;53.358;6.382;2023-05-14T03:16:49;101952.09;;;12.67;100.00
17855;BME280;9053;53.358;6.382;2023-05-14T03:19:19;101952.09;;;12.67;100.00
17855;BME280;9053;53.358;6.382;2023-05-14T03:21:48;101942.59;;;12.70;100.00
17855;BME280;9053;53.358;6.382;2023-05-14T03:24:21;101945.28;;;12.72;100.00
17855;BME280;9053;53.358;6.382;2023-05-14T03:26:51;101943.63;;;12.74;100.00
17855;BME280;9053;53.358;6.382;2023-05-14T03:29:21;101950.75;;;12.76;100.00
17855;BME280;9053;53.358;6.382;2023-05-14T03:31:50;101945.69;;;12.81;100.00
17855;BME280;9053;53.358;6.382;2023-05-14T03:34:23;101950.19;;;12.84;100.00
17855;BME280;9053;53.358;6.382;2023-05-14T03:36:53;101956.16;;;12.80;100.00
17855;BME280;9053;53.358;6.382;2023-05-14T03:39:26;101948.03;;;12.75;100.00
17855;BME280;9053;53.358;6.382;2023-05-14T03:41:56;101953.53;;;12.80;100.00
17855;BME280;9053;53.358;6.382;2023-05-14T03:44:26;101946.56;;;12.82;100.00
17855;BME280;9053;53.358;6.382;2023-05-14T03:46:55;101951.81;;;12.80;100.00
17855;BME280;9053;53.358;6.382;2023-05-14T03:49:25;101950.97;;;12.81;100.00
17855;BME280;9053;53.358;6.382;2023-05-14T03:51:55;101951.72;;;12.78;100.00
17855;BME280;9053;53.358;6.382;2023-05-14T03:54:28;101949.16;;;12.80;100.00
17855;BME280;9053;53.358;6.382;2023-05-14T03:56:58;101943.88;;;12.80;100.00
17855;BME280;9053;53.358;6.382;2023-05-14T03:59:28;101944.78;;;12.81;100.00
17855;BME280;9053;53.358;6.382;2023-05-14T04:01:58;101947.44;;;12.81;100.00
17855;BME280;9053;53.358;6.382;2023-05-14T04:04:28;101950.06;;;12.81;100.00
17855;BME280;9053;53.358;6.382;2023-05-14T04:06:58;101945.81;;;12.84;100.00
17855;BME280;9053;53.358;6.382;2023-05-14T04:09:31;101951.53;;;12.74;100.00
17855;BME280;9053;53.358;6.382;2023-05-14T04:12:00;101961.25;;;12.75;100.00
17855;BME280;9053;53.358;6.382;2023-05-14T04:14:30;101954.09;;;12.72;100.00
17855;BME280;9053;53.358;6.382;2023-05-14T04:17:00;101954.06;;;12.71;100.00
17855;BME280;9053;53.358;6.382;2023-05-14T04:19:30;101952.22;;;12.70;100.00
17855;BME280;9053;53.358;6.382;2023-05-14T04:22:00;101955.78;;;12.70;100.00
17855;BME280;9053;53.358;6.382;2023-05-14T04:24:32;101949.59;;;12.70;100.00
17855;BME280;9053;53.358;6.382;2023-05-14T04:27:03;101953.28;;;12.73;100.00
17855;BME280;9053;53.358;6.382;2023-05-14T04:29:33;101937.56;;;12.76;100.00
17855;BME280;9053;53.358;6.382;2023-05-14T04:32:04;101940.84;;;12.71;100.00
17855;BME280;9053;53.358;6.382;2023-05-14T04:34:34;101948.91;;;12.74;100.00
17855;BME280;9053;53.358;6.382;2023-05-14T04:37:05;101940.19;;;12.76;100.00
17855;BME280;9053;53.358;6.382;2023-05-14T04:39:37;101950.97;;;12.81;100.00
17855;BME280;9053;53.358;6.382;2023-05-14T04:42:07;101937.84;;;12.83;100.00
17855;BME280;9053;53.358;6.382;2023-05-14T04:44:37;101937.19;;;12.88;100.00
17855;BME280;9053;53.358;6.382;2023-05-14T04:47:08;101943.38;;;12.89;100.00
17855;BME280;9053;53.358;6.382;2023-05-14T04:49:38;101942.19;;;12.82;100.00
17855;BME280;9053;53.358;6.382;2023-05-14T04:52:09;101942.75;;;12.75;100.00
17855;BME280;9053;53.358;6.382;2023-05-14T04:54:41;101932.16;;;12.73;100.00
17855;BME280;9053;53.358;6.382;2023-05-14T04:57:11;101934.09;;;12.77;100.00
17855;BME280;9053;53.358;6.382;2023-05-14T04:59:41;101933.56;;;12.86;100.00
17855;BME280;9053;53.358;6.382;2023-05-14T05:02:11;101931.06;;;12.89;100.00
17855;BME280;9053;53.358;6.382;2023-05-14T05:04:41;101929.97;;;12.84;100.00
17855;BME280;9053;53.358;6.382;2023-05-14T05:07:11;101933.44;;;12.83;100.00
17855;BME280;9053;53.358;6.382;2023-05-14T05:09:44;101934.66;;;12.91;100.00
17855;BME280;9053;53.358;6.382;2023-05-14T05:12:14;101930.34;;;12.93;100.00
17855;BME280;9053;53.358;6.382;2023-05-14T05:14:45;101927.84;;;12.96;100.00
17855;BME280;9053;53.358;6.382;2023-05-14T05:17:15;101939.50;;;13.02;100.00
17855;BME280;9053;53.358;6.382;2023-05-14T05:19:46;101941.63;;;13.10;100.00
17855;BME280;9053;53.358;6.382;2023-05-14T05:22:16;101944.63;;;13.19;100.00
17855;BME280;9053;53.358;6.382;2023-05-14T05:24:48;101937.94;;;13.28;100.00
17855;BME280;9053;53.358;6.382;2023-05-14T05:27:18;101933.81;;;13.34;100.00
17855;BME280;9053;53.358;6.382;2023-05-14T05:29:49;101926.19;;;13.42;100.00
17855;BME280;9053;53.358;6.382;2023-05-14T05:32:19;101937.91;;;13.49;100.00
17855;BME280;9053;53.358;6.382;2023-05-14T05:34:49;101930.47;;;13.61;100.00
17855;BME280;9053;53.358;6.382;2023-05-14T05:37:20;101925.63;;;13.73;100.00
17855;BME280;9053;53.358;6.382;2023-05-14T05:39:53;101930.56;;;13.87;100.00
17855;BME280;9053;53.358;6.382;2023-05-14T05:42:23;101929.19;;;13.98;100.00
17855;BME280;9053;53.358;6.382;2023-05-14T05:44:53;101943.84;;;14.12;100.00
17855;BME280;9053;53.358;6.382;2023-05-14T05:47:23;101944.19;;;14.21;100.00
17855;BME280;9053;53.358;6.382;2023-05-14T05:49:53;101943.72;;;14.33;100.00
17855;BME280;9053;53.358;6.382;2023-05-14T05:52:23;101937.00;;;14.43;100.00
17855;BME280;9053;53.358;6.382;2023-05-14T05:54:55;101938.16;;;14.51;100.00
17855;BME280;9053;53.358;6.382;2023-05-14T05:57:26;101932.38;;;14.61;100.00
17855;BME280;9053;53.358;6.382;2023-05-14T05:59:56;101939.75;;;14.70;100.00
17855;BME280;9053;53.358;6.382;2023-05-14T06:02:26;101942.03;;;14.85;100.00
17855;BME280;9053;53.358;6.382;2023-05-14T06:04:59;101946.56;;;14.89;100.00
17855;BME280;9053;53.358;6.382;2023-05-14T06:07:29;101943.34;;;14.98;100.00
17855;BME280;9053;53.358;6.382;2023-05-14T06:10:01;101944.53;;;15.07;100.00
17855;BME280;9053;53.358;6.382;2023-05-14T06:12:32;101942.00;;;15.10;100.00
17855;BME280;9053;53.358;6.382;2023-05-14T06:15:02;101939.44;;;15.13;100.00
17855;BME280;9053;53.358;6.382;2023-05-14T06:17:32;101942.00;;;15.10;100.00
17855;BME280;9053;53.358;6.382;2023-05-14T06:20:02;101936.69;;;15.10;100.00
17855;BME280;9053;53.358;6.382;2023-05-14T06:22:33;101944.16;;;14.97;100.00
17855;BME280;9053;53.358;6.382;2023-05-14T06:25:07;101949.38;;;14.93;100.00
17855;BME280;9053;53.358;6.382;2023-05-14T06:27:37;101953.69;;;14.90;100.00
17855;BME280;9053;53.358;6.382;2023-05-14T06:30:09;101953.44;;;14.84;100.00
17855;BME280;9053;53.358;6.382;2023-05-14T06:32:39;101953.00;;;14.70;100.00
17855;BME280;9053;53.358;6.382;2023-05-14T06:35:09;101954.31;;;14.57;100.00
17855;BME280;9053;53.358;6.382;2023-05-14T06:37:39;101961.16;;;14.52;100.00
17855;BME280;9053;53.358;6.382;2023-05-14T06:40:13;101961.78;;;14.45;100.00
17855;BME280;9053;53.358;6.382;2023-05-14T06:42:44;101962.31;;;14.35;100.00
17855;BME280;9053;53.358;6.382;2023-05-14T06:45:14;101956.94;;;14.33;100.00
17855;BME280;9053;53.358;6.382;2023-05-14T06:47:43;101956.66;;;14.25;100.00
17855;BME280;9053;53.358;6.382;2023-05-14T06:50:13;101957.34;;;14.20;100.00
17855;BME280;9053;53.358;6.382;2023-05-14T06:52:43;101950.91;;;14.13;100.00
17855;BME280;9053;53.358;6.382;2023-05-14T06:55:16;101940.00;;;14.04;100.00
17855;BME280;9053;53.358;6.382;2023-05-14T06:57:46;101931.94;;;14.01;100.00
17855;BME280;9053;53.358;6.382;2023-05-14T07:00:17;101940.22;;;14.10;100.00
17855;BME280;9053;53.358;6.382;2023-05-14T07:02:48;101942.88;;;14.10;100.00
17855;BME280;9053;53.358;6.382;2023-05-14T07:05:23;101939.63;;;14.17;100.00
17855;BME280;9053;53.358;6.382;2023-05-14T07:07:53;101936.56;;;14.31;100.00
17855;BME280;9053;53.358;6.382;2023-05-14T07:10:25;101941.47;;;14.44;100.00
17855;BME280;9053;53.358;6.382;2023-05-14T07:12:56;101937.47;;;14.55;100.00
17855;BME280;9053;53.358;6.382;2023-05-14T07:15:26;101942.03;;;14.59;100.00
17855;BME280;9053;53.358;6.382;2023-05-14T07:17:56;101930.75;;;14.65;100.00
17855;BME280;9053;53.358;6.382;2023-05-14T07:20:26;101942.06;;;14.61;100.00
17855;BME280;9053;53.358;6.382;2023-05-14T07:22:56;101929.19;;;14.71;100.00
17855;BME280;9053;53.358;6.382;2023-05-14T07:25:28;101925.28;;;14.86;100.00
17855;BME280;9053;53.358;6.382;2023-05-14T07:27:58;101912.38;;;14.97;100.00
17855;BME280;9053;53.358;6.382;2023-05-14T07:30:28;101926.56;;;14.97;100.00
17855;BME280;9053;53.358;6.382;2023-05-14T07:32:58;101930.53;;;15.11;100.00
17855;BME280;9053;53.358;6.382;2023-05-14T07:35:28;101927.44;;;15.25;100.00
17855;BME280;9053;53.358;6.382;2023-05-14T07:37:58;101930.34;;;15.32;100.00
17855;BME280;9053;53.358;6.382;2023-05-14T07:40:30;101935.88;;;15.40;100.00
17855;BME280;9053;53.358;6.382;2023-05-14T07:43:00;101921.75;;;15.41;100.00
17855;BME280;9053;53.358;6.382;2023-05-14T07:45:30;101921.34;;;15.56;100.00
17855;BME280;9053;53.358;6.382;2023-05-14T07:48:03;101931.22;;;15.62;100.00
17855;BME280;9053;53.358;6.382;2023-05-14T07:50:33;101930.69;;;15.72;100.00
17855;BME280;9053;53.358;6.382;2023-05-14T07:53:03;101925.72;;;15.83;100.00
17855;BME280;9053;53.358;6.382;2023-05-14T07:55:36;101935.00;;;15.98;100.00
17855;BME280;9053;53.358;6.382;2023-05-14T07:58:06;101926.19;;;15.99;100.00
17855;BME280;9053;53.358;6.382;2023-05-14T08:00:36;101926.38;;;16.06;100.00
17855;BME280;9053;53.358;6.382;2023-05-14T08:03:06;101926.88;;;15.92;100.00
17855;BME280;9053;53.358;6.382;2023-05-14T08:05:36;101934.97;;;15.68;100.00
17855;BME280;9053;53.358;6.382;2023-05-14T08:08:06;101925.16;;;15.66;100.00
17855;BME280;9053;53.358;6.382;2023-05-14T08:10:39;101934.19;;;15.71;100.00
17855;BME280;9053;53.358;6.382;2023-05-14T08:13:09;101933.78;;;15.58;100.00
17855;BME280;9053;53.358;6.382;2023-05-14T08:15:39;101920.25;;;15.49;100.00
17855;BME280;9053;53.358;6.382;2023-05-14T08:18:08;101920.22;;;15.48;100.00
17855;BME280;9053;53.358;6.382;2023-05-14T08:20:38;101911.31;;;15.46;100.00
17855;BME280;9053;53.358;6.382;2023-05-14T08:23:08;101917.50;;;15.46;100.00
17855;BME280;9053;53.358;6.382;2023-05-14T08:25:45;101921.03;;;15.47;100.00
17855;BME280;9053;53.358;6.382;2023-05-14T08:28:18;101928.16;;;15.48;100.00
17855;BME280;9053;53.358;6.382;2023-05-14T08:30:50;101931.63;;;15.45;100.00
17855;BME280;9053;53.358;6.382;2023-05-14T08:33:23;101930.66;;;15.43;100.00
17855;BME280;9053;53.358;6.382;2023-05-14T08:35:55;101922.88;;;15.49;100.00
17855;BME280;9053;53.358;6.382;2023-05-14T08:38:26;101924.31;;;15.67;100.00
17855;BME280;9053;53.358;6.382;2023-05-14T08:40:59;101934.50;;;15.80;100.00
17855;BME280;9053;53.358;6.382;2023-05-14T08:43:33;101935.69;;;15.91;100.00
17855;BME280;9053;53.358;6.382;2023-05-14T08:46:05;101922.72;;;16.02;100.00
17855;BME280;9053;53.358;6.382;2023-05-14T08:48:36;101915.84;;;16.09;100.00
17855;BME280;9053;53.358;6.382;2023-05-14T08:51:09;101920.06;;;16.02;100.00
17855;BME280;9053;53.358;6.382;2023-05-14T08:53:39;101920.13;;;16.04;100.00
17855;BME280;9053;53.358;6.382;2023-05-14T08:56:12;101911.97;;;15.97;100.00
17855;BME280;9053;53.358;6.382;2023-05-14T08:58:43;101905.81;;;15.98;100.00
17855;BME280;9053;53.358;6.382;2023-05-14T09:01:13;101902.53;;;16.07;100.00
17855;BME280;9053;53.358;6.382;2023-05-14T09:03:46;101904.47;;;16.13;100.00
17855;BME280;9053;53.358;6.382;2023-05-14T09:06:17;101896.41;;;16.10;100.00
17855;BME280;9053;53.358;6.382;2023-05-14T09:08:48;101893.94;;;16.16;100.00
17855;BME280;9053;53.358;6.382;2023-05-14T09:11:22;101895.38;;;16.36;100.00
17855;BME280;9053;53.358;6.382;2023-05-14T09:13:52;101890.53;;;16.55;100.00
17855;BME280;9053;53.358;6.382;2023-05-14T09:16:24;101899.59;;;16.63;100.00
17855;BME280;9053;53.358;6.382;2023-05-14T09:19:00;101898.69;;;16.62;100.00
17855;BME280;9053;53.358;6.382;2023-05-14T09:21:30;101898.56;;;16.56;100.00
17855;BME280;9053;53.358;6.382;2023-05-14T09:24:00;101889.91;;;16.65;100.00
17855;BME280;9053;53.358;6.382;2023-05-14T09:26:33;101900.84;;;16.76;100.00
17855;BME280;9053;53.358;6.382;2023-05-14T09:29:03;101900.44;;;16.95;99.85
17855;BME280;9053;53.358;6.382;2023-05-14T09:31:33;101901.63;;;17.08;99.64
17855;BME280;9053;53.358;6.382;2023-05-14T09:34:03;101902.56;;;17.10;99.48
17855;BME280;9053;53.358;6.382;2023-05-14T09:36:33;101887.56;;;17.12;99.47
17855;BME280;9053;53.358;6.382;2023-05-14T09:39:04;101881.66;;;17.25;99.76
17855;BME280;9053;53.358;6.382;2023-05-14T09:41:37;101888.03;;;17.34;99.38
17855;BME280;9053;53.358;6.382;2023-05-14T09:44:07;101885.59;;;17.43;99.17
17855;BME280;9053;53.358;6.382;2023-05-14T09:46:37;101877.00;;;17.55;98.85
17855;BME280;9053;53.358;6.382;2023-05-14T09:49:07;101882.66;;;17.70;98.45
17855;BME280;9053;53.358;6.382;2023-05-14T09:51:38;101885.44;;;17.76;97.98
17855;BME280;9053;53.358;6.382;2023-05-14T09:54:08;101885.41;;;17.74;97.66
17855;BME280;9053;53.358;6.382;2023-05-14T09:56:42;101872.41;;;17.87;97.32
17855;BME280;9053;53.358;6.382;2023-05-14T09:59:12;101870.50;;;17.81;96.87
17855;BME280;9053;53.358;6.382;2023-05-14T10:01:42;101860.53;;;17.72;96.60
17855;BME280;9053;53.358;6.382;2023-05-14T10:04:12;101867.72;;;17.77;96.34
17855;BME280;9053;53.358;6.382;2023-05-14T10:06:49;101867.88;;;17.83;96.42
17855;BME280;9053;53.358;6.382;2023-05-14T10:09:20;101869.59;;;17.81;96.16
17855;BME280;9053;53.358;6.382;2023-05-14T10:11:58;101861.44;;;17.73;95.95
17855;BME280;9053;53.358;6.382;2023-05-14T10:14:33;101854.28;;;17.70;96.04
17855;BME280;9053;53.358;6.382;2023-05-14T10:17:05;101856.22;;;17.78;96.12
17855;BME280;9053;53.358;6.382;2023-05-14T10:19:49;101844.88;;;17.86;96.41
17855;BME280;9053;53.358;6.382;2023-05-14T10:22:25;101854.78;;;17.93;96.50
17855;BME280;9053;53.358;6.382;2023-05-14T10:24:56;101853.97;;;17.98;96.06
17855;BME280;9053;53.358;6.382;2023-05-14T10:27:28;101843.28;;;17.94;95.34
17855;BME280;9053;53.358;6.382;2023-05-14T10:29:58;101854.06;;;18.02;95.14
17855;BME280;9053;53.358;6.382;2023-05-14T10:32:31;101844.41;;;18.07;94.92
17855;BME280;9053;53.358;6.382;2023-05-14T10:35:14;101849.75;;;18.09;94.79
17855;BME280;9053;53.358;6.382;2023-05-14T10:37:46;101838.25;;;18.11;94.92
17855;BME280;9053;53.358;6.382;2023-05-14T10:40:23;101829.38;;;18.09;94.80
17855;BME280;9053;53.358;6.382;2023-05-14T10:43:00;101834.69;;;18.09;95.00
17855;BME280;9053;53.358;6.382;2023-05-14T10:45:31;101839.28;;;18.18;95.31
17855;BME280;9053;53.358;6.382;2023-05-14T10:48:01;101828.94;;;18.35;95.64
17855;BME280;9053;53.358;6.382;2023-05-14T10:50:31;101828.09;;;18.37;95.48
17855;BME280;9053;53.358;6.382;2023-05-14T10:53:01;101824.72;;;18.49;95.63
17855;BME280;9053;53.358;6.382;2023-05-14T10:55:32;101814.09;;;18.51;95.63
17855;BME280;9053;53.358;6.382;2023-05-14T10:58:05;101819.56;;;18.58;95.52
17855;BME280;9053;53.358;6.382;2023-05-14T11:00:34;101817.91;;;18.67;95.43
17855;BME280;9053;53.358;6.382;2023-05-14T11:03:06;101813.69;;;18.78;95.32
17855;BME280;9053;53.358;6.382;2023-05-14T11:05:39;101814.78;;;18.92;94.63
17855;BME280;9053;53.358;6.382;2023-05-14T11:08:10;101814.81;;;18.94;94.50
17855;BME280;9053;53.358;6.382;2023-05-14T11:10:41;101803.38;;;19.01;93.90
17855;BME280;9053;53.358;6.382;2023-05-14T11:13:18;101804.28;;;19.05;93.50
17855;BME280;9053;53.358;6.382;2023-05-14T11:15:49;101808.00;;;19.13;93.22
17855;BME280;9053;53.358;6.382;2023-05-14T11:18:25;101801.88;;;19.21;92.82
17855;BME280;9053;53.358;6.382;2023-05-14T11:20:59;101795.66;;;19.22;92.89
17855;BME280;9053;53.358;6.382;2023-05-14T11:23:31;101794.00;;;19.32;92.76
17855;BME280;9053;53.358;6.382;2023-05-14T11:26:01;101791.47;;;19.41;92.86
17855;BME280;9053;53.358;6.382;2023-05-14T11:28:33;101785.34;;;19.49;92.57
17855;BME280;9053;53.358;6.382;2023-05-14T11:31:04;101781.00;;;19.58;92.25
17855;BME280;9053;53.358;6.382;2023-05-14T11:33:34;101781.16;;;19.69;92.19
17855;BME280;9053;53.358;6.382;2023-05-14T11:36:05;101780.34;;;19.76;92.10
17855;BME280;9053;53.358;6.382;2023-05-14T11:38:45;101776.91;;;19.86;92.46
17855;BME280;9053;53.358;6.382;2023-05-14T11:41:17;101783.16;;;19.93;92.22
17855;BME280;9053;53.358;6.382;2023-05-14T11:43:51;101774.31;;;19.94;92.07
17855;BME280;9053;53.358;6.382;2023-05-14T11:46:23;101774.41;;;20.03;91.70
17855;BME280;9053;53.358;6.382;2023-05-14T11:48:55;101776.16;;;20.01;91.64
17855;BME280;9053;53.358;6.382;2023-05-14T11:51:25;101768.13;;;20.03;91.70
17855;BME280;9053;53.358;6.382;2023-05-14T11:53:55;101772.66;;;20.10;91.75
17855;BME280;9053;53.358;6.382;2023-05-14T11:56:25;101770.88;;;20.07;91.57
17855;BME280;9053;53.358;6.382;2023-05-14T11:58:58;101777.06;;;20.05;91.47
17855;BME280;9053;53.358;6.382;2023-05-14T12:01:28;101779.78;;;20.09;91.56
17855;BME280;9053;53.358;6.382;2023-05-14T12:04:00;101770.88;;;20.06;91.13
17855;BME280;9053;53.358;6.382;2023-05-14T12:06:32;101769.88;;;19.98;91.01
17855;BME280;9053;53.358;6.382;2023-05-14T12:09:04;101769.03;;;20.02;91.21
17855;BME280;9053;53.358;6.382;2023-05-14T12:11:35;101766.28;;;19.96;91.37
17855;BME280;9053;53.358;6.382;2023-05-14T12:14:14;101763.63;;;19.94;91.75
17855;BME280;9053;53.358;6.382;2023-05-14T12:16:45;101760.06;;;19.95;91.46
17855;BME280;9053;53.358;6.382;2023-05-14T12:19:17;101766.25;;;19.93;91.43
17855;BME280;9053;53.358;6.382;2023-05-14T12:21:49;101756.41;;;19.85;91.20
17855;BME280;9053;53.358;6.382;2023-05-14T12:24:24;101756.44;;;19.87;91.29
17855;BME280;9053;53.358;6.382;2023-05-14T12:26:54;101755.50;;;19.83;91.04
17855;BME280;9053;53.358;6.382;2023-05-14T12:29:27;101754.63;;;19.84;90.98
17855;BME280;9053;53.358;6.382;2023-05-14T12:31:57;101743.03;;;19.81;91.21
17855;BME280;9053;53.358;6.382;2023-05-14T12:34:30;101750.19;;;19.83;91.39
17855;BME280;9053;53.358;6.382;2023-05-14T12:37:03;101745.72;;;19.84;91.73
17855;BME280;9053;53.358;6.382;2023-05-14T12:39:33;101746.66;;;19.91;91.84
17855;BME280;9053;53.358;6.382;2023-05-14T12:42:04;101733.22;;;19.80;91.34
17855;BME280;9053;53.358;6.382;2023-05-14T12:44:37;101733.16;;;19.74;91.54
17855;BME280;9053;53.358;6.382;2023-05-14T12:47:09;101733.91;;;19.65;91.64
17855;BME280;9053;53.358;6.382;2023-05-14T12:49:40;101732.91;;;19.54;91.80
17855;BME280;9053;53.358;6.382;2023-05-14T12:52:10;101725.75;;;19.50;91.98
17855;BME280;9053;53.358;6.382;2023-05-14T12:54:51;101730.25;;;19.55;91.89
17855;BME280;9053;53.358;6.382;2023-05-14T12:57:21;101726.53;;;19.39;91.62
17855;BME280;9053;53.358;6.382;2023-05-14T12:59:54;101725.56;;;19.34;91.99
17855;BME280;9053;53.358;6.382;2023-05-14T13:02:24;101723.00;;;19.42;92.40
17855;BME280;9053;53.358;6.382;2023-05-14T13:04:53;101718.59;;;19.44;92.23
17855;BME280;9053;53.358;6.382;2023-05-14T13:07:23;101724.69;;;19.34;91.79
17855;BME280;9053;53.358;6.382;2023-05-14T13:09:53;101721.84;;;19.20;91.80
17855;BME280;9053;53.358;6.382;2023-05-14T13:12:23;101713.66;;;19.03;92.03